Time;durP1;ratioP1;P1;durP2;ratioP2;P2;SDS_P1;SDS_P2;PMS_P1;PMS_P2;Temp;Humidity;BMP_temperature;BMP_pressure;BME280_temperature;BME280_humidity;BME280_pressure;Samples;Min_cycle;Max_cycle;Signal;HPM_P1;HPM_P2
2023/09/14 00:01:20;;;;;;;5.30;4.90;;;19.80;99.90;;;;;;5037101;28;20261;-73
2023/09/14 00:03:47;;;;;;;5.63;5.22;;;19.70;99.90;;;;;;5040121;28;20246;-73
2023/09/14 00:06:14;;;;;;;6.05;5.55;;;19.70;99.90;;;;;;5036997;28;20312;-74
2023/09/14 00:08:43;;;;;;;5.70;5.28;;;19.60;99.90;;;;;;5039405;28;20195;-73
2023/09/14 00:11:10;;;;;;;4.60;4.30;;;19.70;99.90;;;;;;5038114;28;20235;-73
2023/09/14 00:13:37;;;;;;;5.05;4.65;;;19.70;99.90;;;;;;5037696;28;20247;-74
2023/09/14 00:16:04;;;;;;;5.32;4.97;;;19.70;99.90;;;;;;5041931;28;20256;-74
2023/09/14 00:18:32;;;;;;;5.35;4.85;;;19.70;99.90;;;;;;5038831;28;20300;-74
2023/09/14 00:20:58;;;;;;;5.60;5.20;;;19.70;99.90;;;;;;5038859;28;20280;-73
2023/09/14 00:23:26;;;;;;;5.13;4.72;;;19.60;99.90;;;;;;5037455;28;20724;-73
2023/09/14 00:25:54;;;;;;;4.78;4.47;;;19.60;99.90;;;;;;5037774;28;20261;-74
2023/09/14 00:28:21;;;;;;;5.53;5.13;;;19.60;99.90;;;;;;5037291;28;20238;-73
2023/09/14 00:30:52;;;;;;;5.55;5.15;;;19.60;99.90;;;;;;5039394;28;20289;-74
2023/09/14 00:33:19;;;;;;;5.55;5.10;;;19.60;99.90;;;;;;5039476;28;20225;-73
2023/09/14 00:35:46;;;;;;;5.57;5.18;;;19.60;99.90;;;;;;5039075;28;20223;-74
2023/09/14 00:38:13;;;;;;;5.05;4.65;;;19.50;99.90;;;;;;5038878;28;20333;-73
2023/09/14 00:40:40;;;;;;;5.18;4.78;;;19.50;99.90;;;;;;5040275;28;20226;-73
2023/09/14 00:43:09;;;;;;;5.90;5.45;;;19.50;99.90;;;;;;5040436;28;20275;-74
2023/09/14 00:45:37;;;;;;;6.13;5.63;;;19.40;99.90;;;;;;5039721;28;20230;-73
2023/09/14 00:48:04;;;;;;;6.68;6.07;;;19.40;99.90;;;;;;5041182;28;20218;-73
2023/09/14 00:50:32;;;;;;;6.30;5.80;;;19.40;99.90;;;;;;5038448;28;20199;-74
2023/09/14 00:53:02;;;;;;;5.30;4.90;;;19.50;99.90;;;;;;5040255;28;20246;-73
2023/09/14 00:55:30;;;;;;;5.65;5.15;;;19.50;99.90;;;;;;5041851;28;20290;-73
2023/09/14 00:57:57;;;;;;;5.47;5.07;;;19.40;99.90;;;;;;5038567;28;20250;-73
2023/09/14 01:00:26;;;;;;;5.35;4.95;;;19.40;99.90;;;;;;5040573;28;20895;-73
2023/09/14 01:02:56;;;;;;;5.13;4.72;;;19.40;99.90;;;;;;5041433;28;20254;-73
2023/09/14 01:05:25;;;;;;;5.40;5.00;;;19.40;99.90;;;;;;5037416;28;20211;-72
2023/09/14 01:07:51;;;;;;;5.15;4.85;;;19.40;99.90;;;;;;5041004;28;20277;-73
2023/09/14 01:10:19;;;;;;;5.50;5.00;;;19.40;99.90;;;;;;5038575;28;20879;-75
2023/09/14 01:12:48;;;;;;;5.25;4.85;;;19.40;99.90;;;;;;5038883;28;20522;-73
2023/09/14 01:15:20;;;;;;;4.97;4.60;;;19.40;99.90;;;;;;5038466;28;20261;-73
2023/09/14 01:17:59;;;;;;;5.63;5.22;;;19.40;99.90;;;;;;5037677;28;20200;-73
2023/09/14 01:20:51;;;;;;;5.43;4.93;;;19.40;99.90;;;;;;5043597;28;20728;-74
2023/09/14 01:23:31;;;;;;;5.43;5.03;;;19.30;99.90;;;;;;5043758;28;20222;-74
2023/09/14 01:26:01;;;;;;;5.53;5.13;;;19.30;99.90;;;;;;5043457;28;20890;-73
2023/09/14 01:28:28;;;;;;;5.60;5.10;;;19.30;99.90;;;;;;5042646;28;20190;-73
2023/09/14 01:30:56;;;;;;;5.50;5.00;;;19.30;99.90;;;;;;5045188;28;20218;-73
2023/09/14 01:33:25;;;;;;;5.00;4.63;;;19.30;99.90;;;;;;5050715;28;20223;-75
2023/09/14 01:35:58;;;;;;;4.70;4.40;;;19.30;99.90;;;;;;5062499;28;20229;-73
2023/09/14 01:38:26;;;;;;;5.63;5.22;;;19.20;99.90;;;;;;5041459;28;20246;-74
2023/09/14 01:40:54;;;;;;;4.88;4.55;;;19.20;99.90;;;;;;5041642;28;20300;-73
2023/09/14 01:43:23;;;;;;;5.28;4.78;;;19.20;99.90;;;;;;5045500;28;20836;-74
2023/09/14 01:45:51;;;;;;;4.90;4.60;;;19.20;99.90;;;;;;5043129;28;20701;-74
2023/09/14 01:48:20;;;;;;;5.18;4.88;;;19.30;99.90;;;;;;5042912;28;20195;-74
2023/09/14 01:50:47;;;;;;;5.40;5.00;;;19.30;99.90;;;;;;5041173;28;20305;-72
2023/09/14 01:53:14;;;;;;;5.10;4.70;;;19.30;99.90;;;;;;5042945;28;20704;-73
2023/09/14 01:55:41;;;;;;;5.72;5.32;;;19.30;99.90;;;;;;5045556;28;20260;-73
2023/09/14 01:58:09;;;;;;;5.72;5.30;;;19.30;99.90;;;;;;5044867;28;20312;-73
2023/09/14 02:00:37;;;;;;;5.43;5.03;;;19.20;99.90;;;;;;5042120;28;20206;-76
2023/09/14 02:03:05;;;;;;;5.30;4.90;;;19.20;99.90;;;;;;5038271;28;20250;-74
2023/09/14 02:05:32;;;;;;;5.25;4.85;;;19.20;99.90;;;;;;5038996;28;20303;-73
2023/09/14 02:07:58;;;;;;;5.85;5.43;;;19.20;99.90;;;;;;5040483;28;20211;-74
2023/09/14 02:10:25;;;;;;;5.75;5.35;;;19.20;99.90;;;;;;5041658;28;20195;-72
2023/09/14 02:12:53;;;;;;;5.55;5.15;;;19.20;99.90;;;;;;5040193;28;20272;-74
2023/09/14 02:15:19;;;;;;;5.95;5.40;;;19.20;99.90;;;;;;5045007;28;20227;-72
2023/09/14 02:17:48;;;;;;;5.55;5.05;;;19.20;99.90;;;;;;5045617;28;20289;-74
2023/09/14 02:20:15;;;;;;;5.28;4.88;;;19.20;99.90;;;;;;5039877;28;20296;-73
2023/09/14 02:22:42;;;;;;;5.90;5.40;;;19.20;99.90;;;;;;5041120;28;20269;-72
2023/09/14 02:25:09;;;;;;;5.88;5.47;;;19.30;99.90;;;;;;5041980;28;20739;-73
2023/09/14 02:27:37;;;;;;;5.32;4.93;;;19.30;99.90;;;;;;5038775;28;20242;-73
2023/09/14 02:30:05;;;;;;;5.40;4.95;;;19.20;99.90;;;;;;5040890;28;20296;-74
2023/09/14 02:32:32;;;;;;;5.35;4.95;;;19.20;99.90;;;;;;5044059;28;20305;-73
2023/09/14 02:35:00;;;;;;;5.57;5.18;;;19.20;99.90;;;;;;5045950;28;20223;-74
2023/09/14 02:37:27;;;;;;;5.25;4.85;;;19.20;99.90;;;;;;5042948;28;20298;-73
2023/09/14 02:39:54;;;;;;;5.32;4.93;;;19.20;99.90;;;;;;5042360;28;20250;-73
2023/09/14 02:42:21;;;;;;;5.60;5.20;;;19.20;99.90;;;;;;5043284;28;20279;-74
2023/09/14 02:44:48;;;;;;;5.43;5.03;;;19.20;99.90;;;;;;5042021;28;21402;-74
2023/09/14 02:47:15;;;;;;;5.47;5.03;;;19.20;99.90;;;;;;5043537;28;20226;-73
2023/09/14 02:49:42;;;;;;;5.25;4.85;;;19.10;99.90;;;;;;5043525;28;20223;-74
2023/09/14 02:52:10;;;;;;;6.05;5.50;;;19.10;99.90;;;;;;5039490;28;20292;-73
2023/09/14 02:54:37;;;;;;;5.85;5.45;;;19.10;99.90;;;;;;5041118;28;20683;-73
2023/09/14 02:57:05;;;;;;;6.30;5.80;;;19.10;99.90;;;;;;5043128;28;20292;-73
2023/09/14 02:59:32;;;;;;;6.30;5.80;;;19.00;99.90;;;;;;5043672;28;20234;-74
2023/09/14 03:01:59;;;;;;;5.68;5.28;;;18.90;99.90;;;;;;5044185;28;20225;-73
2023/09/14 03:04:26;;;;;;;6.15;5.55;;;18.90;99.90;;;;;;5042780;28;20743;-74
2023/09/14 03:06:54;;;;;;;6.10;5.60;;;19.00;99.90;;;;;;5046412;28;20724;-74
2023/09/14 03:09:22;;;;;;;5.68;5.28;;;19.10;99.90;;;;;;5044052;28;20203;-73
2023/09/14 03:11:49;;;;;;;6.00;5.60;;;19.10;99.90;;;;;;5044906;28;20215;-74
2023/09/14 03:14:16;;;;;;;5.68;5.28;;;19.10;99.90;;;;;;5043425;28;20283;-73
2023/09/14 03:16:43;;;;;;;5.63;5.22;;;19.10;99.90;;;;;;5041561;28;20899;-73
2023/09/14 03:19:09;;;;;;;5.65;5.25;;;19.10;99.90;;;;;;5041280;28;20262;-75
2023/09/14 03:21:36;;;;;;;6.05;5.65;;;19.00;99.90;;;;;;5040950;28;21053;-72
2023/09/14 03:24:04;;;;;;;5.40;5.00;;;19.00;99.90;;;;;;5040340;28;20230;-74
2023/09/14 03:26:32;;;;;;;7.32;5.30;;;19.00;99.90;;;;;;5039603;28;20211;-74
2023/09/14 03:28:59;;;;;;;6.70;6.20;;;19.00;99.90;;;;;;5042179;28;20223;-74
2023/09/14 03:31:26;;;;;;;6.30;5.80;;;18.90;99.90;;;;;;5043265;28;20230;-74
2023/09/14 03:33:53;;;;;;;5.95;5.50;;;18.90;99.90;;;;;;5051399;28;21572;-75
2023/09/14 03:36:20;;;;;;;6.53;5.97;;;18.90;99.90;;;;;;5050048;28;20203;-73
2023/09/14 03:38:47;;;;;;;5.85;5.28;;;18.90;99.90;;;;;;5042267;28;20223;-73
2023/09/14 03:41:14;;;;;;;5.95;5.45;;;18.90;99.90;;;;;;5040982;28;20227;-73
2023/09/14 03:43:43;;;;;;;5.72;5.32;;;18.90;99.90;;;;;;5044126;28;20250;-73
2023/09/14 03:46:15;;;;;;;5.75;5.35;;;18.90;99.90;;;;;;5039527;28;20226;-73
2023/09/14 03:48:42;;;;;;;5.20;4.80;;;18.90;99.90;;;;;;5041189;28;20206;-73
2023/09/14 03:51:09;;;;;;;5.20;4.80;;;18.80;99.90;;;;;;5041305;28;20223;-73
2023/09/14 03:53:36;;;;;;;5.50;5.10;;;18.80;99.90;;;;;;5043332;28;20779;-72
2023/09/14 03:56:04;;;;;;;5.55;5.05;;;18.90;99.90;;;;;;5039746;28;20245;-73
2023/09/14 03:58:31;;;;;;;5.10;4.70;;;18.80;99.90;;;;;;5043006;28;20290;-72
2023/09/14 04:01:00;;;;;;;5.65;5.25;;;18.80;99.90;;;;;;5040208;28;20829;-73
2023/09/14 04:03:27;;;;;;;5.30;4.90;;;18.80;99.90;;;;;;5036533;28;20238;-73
2023/09/14 04:05:53;;;;;;;5.80;5.25;;;18.80;99.90;;;;;;5041589;28;20281;-73
2023/09/14 04:08:22;;;;;;;5.40;5.00;;;18.70;99.90;;;;;;5043164;28;20250;-72
2023/09/14 04:10:51;;;;;;;5.95;5.50;;;18.70;99.90;;;;;;5036448;28;20276;-73
2023/09/14 04:13:30;;;;;;;7.00;6.03;;;18.70;99.90;;;;;;5041192;28;20898;-73
2023/09/14 04:16:00;;;;;;;5.68;5.28;;;18.70;99.90;;;;;;5039608;28;20649;-73
2023/09/14 04:18:27;;;;;;;5.40;5.00;;;18.70;99.90;;;;;;5036287;28;20235;-74
2023/09/14 04:20:55;;;;;;;5.80;5.30;;;18.70;99.90;;;;;;5039363;28;20203;-74
2023/09/14 04:23:22;;;;;;;5.13;4.75;;;18.70;99.90;;;;;;5039645;28;20276;-73
2023/09/14 04:25:51;;;;;;;5.65;5.10;;;18.80;99.90;;;;;;5041730;28;20295;-73
2023/09/14 04:28:21;;;;;;;5.22;4.82;;;18.80;99.90;;;;;;5039350;28;20196;-73
2023/09/14 04:30:49;;;;;;;5.18;4.88;;;18.70;99.90;;;;;;5041478;28;20249;-73
2023/09/14 04:33:18;;;;;;;5.70;5.30;;;18.70;99.90;;;;;;5040737;28;20218;-72
2023/09/14 04:35:45;;;;;;;5.57;5.07;;;18.70;99.90;;;;;;5040382;28;20195;-73
2023/09/14 04:38:13;;;;;;;6.28;5.43;;;18.70;99.90;;;;;;5035423;28;20203;-73
2023/09/14 04:40:41;;;;;;;6.03;5.53;;;18.70;99.90;;;;;;5037514;28;20219;-73
2023/09/14 04:43:09;;;;;;;5.10;4.70;;;18.70;99.90;;;;;;5042733;28;20211;-73
2023/09/14 04:45:36;;;;;;;5.57;5.18;;;18.80;99.90;;;;;;5039018;28;20257;-72
2023/09/14 04:48:03;;;;;;;5.40;4.90;;;18.90;99.90;;;;;;5041714;28;20207;-73
2023/09/14 04:50:31;;;;;;;5.78;5.28;;;18.90;99.90;;;;;;5035851;28;20198;-73
2023/09/14 04:52:59;;;;;;;5.72;5.32;;;18.90;99.90;;;;;;5041748;28;20373;-73
2023/09/14 04:55:26;;;;;;;5.35;4.95;;;18.90;99.90;;;;;;5039375;28;20292;-73
2023/09/14 04:57:53;;;;;;;5.22;4.82;;;18.80;99.90;;;;;;5037316;28;20288;-73
2023/09/14 05:00:20;;;;;;;5.28;4.88;;;18.70;99.90;;;;;;5037171;28;20246;-74
2023/09/14 05:02:47;;;;;;;4.80;4.43;;;18.70;99.90;;;;;;5039989;28;20254;-73
2023/09/14 05:05:14;;;;;;;5.25;4.75;;;18.70;99.90;;;;;;5040916;28;20689;-73
2023/09/14 05:07:43;;;;;;;5.43;5.03;;;18.60;99.90;;;;;;5039515;28;20200;-73
2023/09/14 05:10:11;;;;;;;4.63;4.32;;;18.60;99.90;;;;;;5041624;28;20289;-74
2023/09/14 05:12:38;;;;;;;5.20;4.80;;;18.60;99.90;;;;;;5039590;28;20221;-74
2023/09/14 05:15:06;;;;;;;4.97;4.65;;;18.60;99.90;;;;;;5038218;28;20199;-72
2023/09/14 05:17:33;;;;;;;4.68;4.38;;;18.60;99.90;;;;;;5038043;28;20195;-72
2023/09/14 05:20:00;;;;;;;4.88;4.47;;;18.60;99.90;;;;;;5040428;28;20756;-72
2023/09/14 05:22:28;;;;;;;5.50;5.00;;;18.80;99.90;;;;;;5039412;28;20276;-73
2023/09/14 05:24:56;;;;;;;5.90;5.40;;;18.90;99.90;;;;;;5038513;28;20199;-74
2023/09/14 05:27:23;;;;;;;5.45;5.05;;;19.00;99.90;;;;;;5040571;28;20310;-73
2023/09/14 05:29:50;;;;;;;4.80;4.50;;;19.10;99.90;;;;;;5038267;28;20288;-74
2023/09/14 05:32:17;;;;;;;4.95;4.55;;;19.00;99.90;;;;;;5040513;28;20984;-74
2023/09/14 05:34:44;;;;;;;4.95;4.55;;;19.00;99.90;;;;;;5060791;28;20207;-74
2023/09/14 05:37:14;;;;;;;8.25;5.90;;;19.10;99.90;;;;;;5041373;28;20199;-72
2023/09/14 05:39:41;;;;;;;4.85;4.45;;;19.20;99.90;;;;;;5039772;28;20280;-74
2023/09/14 05:42:09;;;;;;;6.28;5.22;;;19.20;99.90;;;;;;5041893;28;20306;-73
2023/09/14 05:44:36;;;;;;;5.45;5.05;;;19.30;99.90;;;;;;5041894;28;20280;-73
2023/09/14 05:47:03;;;;;;;5.13;4.63;;;19.30;99.90;;;;;;5042289;28;20262;-73
2023/09/14 05:49:30;;;;;;;4.95;4.55;;;19.40;99.90;;;;;;5039295;28;20582;-73
2023/09/14 05:51:58;;;;;;;4.43;4.10;;;19.40;99.90;;;;;;5040509;28;20360;-73
2023/09/14 05:54:25;;;;;;;4.70;4.30;;;19.50;99.90;;;;;;5039777;28;20194;-73
2023/09/14 05:56:52;;;;;;;4.70;4.30;;;19.50;99.90;;;;;;5039408;28;20833;-73
2023/09/14 05:59:21;;;;;;;4.95;4.45;;;19.60;99.90;;;;;;5040219;28;20308;-72
2023/09/14 06:01:48;;;;;;;5.20;4.32;;;19.70;99.90;;;;;;5037354;28;20223;-74
2023/09/14 06:04:15;;;;;;;5.00;4.60;;;19.80;99.90;;;;;;5038567;28;20264;-74
2023/09/14 06:06:42;;;;;;;4.57;4.18;;;19.70;99.90;;;;;;5044159;28;20754;-72
2023/09/14 06:09:09;;;;;;;4.85;4.50;;;19.50;99.90;;;;;;5044123;28;20681;-72
2023/09/14 06:11:36;;;;;;;5.10;4.72;;;19.50;99.90;;;;;;5043708;28;20286;-72
2023/09/14 06:14:03;;;;;;;4.60;4.30;;;19.50;99.90;;;;;;5042754;28;20285;-73
2023/09/14 06:16:31;;;;;;;6.38;5.20;;;19.50;99.90;;;;;;5043046;28;20264;-72
2023/09/14 06:18:58;;;;;;;4.85;4.45;;;19.90;99.90;;;;;;5043881;28;20704;-72
2023/09/14 06:21:25;;;;;;;4.18;3.88;;;20.30;99.90;;;;;;5040813;28;20251;-74
2023/09/14 06:23:52;;;;;;;4.35;3.90;;;20.50;99.90;;;;;;5041023;28;20203;-72
2023/09/14 06:26:19;;;;;;;4.65;4.30;;;20.50;99.90;;;;;;5043955;28;20199;-73
2023/09/14 06:28:46;;;;;;;7.78;5.30;;;20.50;99.90;;;;;;5043051;28;20195;-74
2023/09/14 06:31:13;;;;;;;5.05;4.65;;;20.40;99.90;;;;;;5042229;28;20354;-73
2023/09/14 06:33:41;;;;;;;5.32;4.90;;;20.30;99.90;;;;;;5044858;28;20280;-74
2023/09/14 06:36:08;;;;;;;5.72;4.43;;;20.20;99.90;;;;;;5043654;28;20306;-74
2023/09/14 06:38:35;;;;;;;4.93;4.53;;;19.90;99.90;;;;;;5040502;28;22132;-75
2023/09/14 06:41:02;;;;;;;4.82;4.43;;;19.80;99.90;;;;;;5039893;28;20257;-74
2023/09/14 06:43:29;;;;;;;4.90;4.40;;;19.90;99.90;;;;;;5044223;28;20307;-74
2023/09/14 06:45:56;;;;;;;5.15;4.65;;;20.50;99.90;;;;;;5039505;28;20235;-74
2023/09/14 06:48:23;;;;;;;4.32;3.97;;;21.40;99.90;;;;;;5044373;28;20198;-74
2023/09/14 06:50:51;;;;;;;4.57;4.22;;;21.70;99.90;;;;;;5040830;28;21134;-74
2023/09/14 06:53:18;;;;;;;4.93;4.40;;;21.80;99.90;;;;;;5040723;28;20234;-76
2023/09/14 06:55:45;;;;;;;5.18;4.75;;;22.00;99.90;;;;;;5040536;28;20203;-73
2023/09/14 06:58:12;;;;;;;5.57;5.07;;;22.10;99.90;;;;;;5034462;28;20250;-74
2023/09/14 07:00:39;;;;;;;4.68;4.28;;;22.20;99.90;;;;;;5033107;28;20720;-73
2023/09/14 07:03:06;;;;;;;8.43;5.45;;;22.30;99.90;;;;;;5037323;28;20250;-74
2023/09/14 07:05:35;;;;;;;5.00;4.57;;;22.60;99.90;;;;;;5039831;28;20221;-74
2023/09/14 07:08:03;;;;;;;5.10;4.60;;;22.90;99.90;;;;;;5038410;28;20903;-73
2023/09/14 07:10:30;;;;;;;5.40;4.95;;;22.60;99.90;;;;;;5040690;28;20203;-74
2023/09/14 07:12:57;;;;;;;8.10;5.15;;;22.20;99.90;;;;;;5038356;28;20954;-74
2023/09/14 07:15:24;;;;;;;5.55;4.82;;;21.70;99.90;;;;;;5038278;28;20277;-74
2023/09/14 07:17:51;;;;;;;4.80;4.40;;;21.50;99.90;;;;;;5037068;28;20230;-74
2023/09/14 07:20:18;;;;;;;5.53;4.97;;;21.50;99.90;;;;;;5034020;28;20299;-77
2023/09/14 07:22:45;;;;;;;4.55;4.13;;;21.50;99.90;;;;;;5051171;28;20227;-78
2023/09/14 07:25:13;;;;;;;5.57;4.30;;;21.50;99.90;;;;;;5050309;28;20195;-78
2023/09/14 07:27:41;;;;;;;5.15;4.50;;;21.40;99.90;;;;;;5049728;28;20202;-77
2023/09/14 07:30:10;;;;;;;4.55;4.25;;;21.20;99.90;;;;;;5051036;28;20195;-79
2023/09/14 07:32:39;;;;;;;4.65;4.25;;;21.10;99.90;;;;;;5052194;28;20256;-78
2023/09/14 07:35:07;;;;;;;4.60;3.97;;;21.10;99.90;;;;;;5061922;28;20247;-78
2023/09/14 07:37:36;;;;;;;5.90;3.95;;;21.30;99.90;;;;;;5052049;28;20296;-78
2023/09/14 07:40:04;;;;;;;6.90;4.03;;;21.60;99.90;;;;;;5047212;28;20780;-76
2023/09/14 07:42:32;;;;;;;4.95;4.55;;;22.10;99.90;;;;;;5047523;28;20460;-78
2023/09/14 07:44:59;;;;;;;4.75;4.28;;;22.30;99.90;;;;;;5046270;28;20202;-76
2023/09/14 07:47:29;;;;;;;4.55;4.25;;;22.10;99.90;;;;;;5044278;28;20285;-75
2023/09/14 07:49:57;;;;;;;4.65;4.20;;;22.20;99.90;;;;;;5035708;28;20203;-76
2023/09/14 07:52:24;;;;;;;5.72;4.35;;;22.60;99.90;;;;;;5037985;28;20266;-74
2023/09/14 07:54:51;;;;;;;4.75;4.35;;;22.50;99.90;;;;;;5039544;28;20206;-78
2023/09/14 07:57:18;;;;;;;4.90;4.40;;;22.20;99.90;;;;;;5037463;28;20227;-77
2023/09/14 07:59:46;;;;;;;5.20;4.70;;;22.20;99.90;;;;;;5037996;28;20770;-77
2023/09/14 08:02:13;;;;;;;6.50;4.43;;;22.50;99.90;;;;;;5039840;28;20223;-75
2023/09/14 08:04:40;;;;;;;4.70;4.20;;;22.90;99.90;;;;;;5033212;28;20935;-75
2023/09/14 08:07:07;;;;;;;5.30;4.90;;;23.50;99.90;;;;;;5036422;28;20209;-78
2023/09/14 08:09:34;;;;;;;4.40;4.10;;;24.20;99.90;;;;;;5030291;28;20218;-77
2023/09/14 08:12:01;;;;;;;4.82;4.43;;;24.50;99.90;;;;;;5034542;28;20830;-78
2023/09/14 08:14:28;;;;;;;4.50;4.10;;;24.70;99.90;;;;;;5036379;28;20203;-77
2023/09/14 08:16:56;;;;;;;4.63;4.22;;;24.20;99.90;;;;;;5044143;28;20210;-77
2023/09/14 08:19:23;;;;;;;4.63;4.20;;;24.00;99.90;;;;;;5044676;28;20207;-78
2023/09/14 08:21:52;;;;;;;5.57;4.82;;;23.50;99.90;;;;;;5043493;28;20223;-77
2023/09/14 08:24:19;;;;;;;5.32;4.88;;;23.00;99.90;;;;;;5038154;28;20202;-77
2023/09/14 08:26:46;;;;;;;5.93;5.43;;;22.60;99.90;;;;;;5041826;28;20194;-77
2023/09/14 08:29:13;;;;;;;5.25;4.82;;;22.30;99.90;;;;;;5034857;28;20272;-79
2023/09/14 08:31:42;;;;;;;5.05;4.60;;;22.20;99.90;;;;;;5040546;28;20273;-77
2023/09/14 08:34:11;;;;;;;4.97;4.60;;;22.60;99.90;;;;;;5038537;28;20942;-78
2023/09/14 08:36:39;;;;;;;5.25;4.75;;;23.20;99.90;;;;;;5034145;28;20211;-79
2023/09/14 08:39:06;;;;;;;5.88;5.28;;;23.40;99.90;;;;;;5033546;28;20203;-77
2023/09/14 08:41:37;;;;;;;5.30;4.80;;;23.50;99.90;;;;;;5032087;28;20260;-78
2023/09/14 08:44:05;;;;;;;4.90;4.45;;;23.50;99.90;;;;;;5039735;28;20291;-78
2023/09/14 08:46:34;;;;;;;4.63;4.22;;;23.50;99.90;;;;;;5037450;28;20747;-78
2023/09/14 08:49:04;;;;;;;4.13;3.83;;;23.60;99.90;;;;;;5037365;28;20203;-78
2023/09/14 08:51:34;;;;;;;3.80;3.50;;;23.90;99.90;;;;;;5038051;28;20700;-78
2023/09/14 08:54:00;;;;;;;4.50;4.20;;;24.80;99.90;;;;;;5043339;28;20262;-78
2023/09/14 08:56:28;;;;;;;4.90;4.50;;;25.00;99.90;;;;;;5031862;28;20211;-77
2023/09/14 08:58:56;;;;;;;4.30;3.90;;;24.90;99.90;;;;;;5034839;28;20203;-78
2023/09/14 09:01:24;;;;;;;4.35;4.03;;;24.90;99.90;;;;;;5033762;28;20211;-78
2023/09/14 09:03:51;;;;;;;5.18;4.68;;;25.10;99.90;;;;;;5036112;28;20222;-78
2023/09/14 09:06:19;;;;;;;4.65;4.20;;;25.20;99.90;;;;;;5033455;28;20230;-79
2023/09/14 09:08:47;;;;;;;4.30;3.90;;;25.30;99.90;;;;;;5031690;28;20896;-77
2023/09/14 09:11:17;;;;;;;4.30;3.97;;;25.50;99.90;;;;;;5038075;28;20911;-79
2023/09/14 09:13:45;;;;;;;4.32;4.03;;;25.50;99.90;;;;;;5036299;28;20219;-76
2023/09/14 09:16:13;;;;;;;6.10;4.35;;;25.70;99.90;;;;;;5032736;28;20660;-78
2023/09/14 09:19:02;;;;;;;4.90;4.40;;;25.80;99.90;;;;;;5035719;28;20196;-76
2023/09/14 09:21:29;;;;;;;4.80;4.40;;;26.00;99.90;;;;;;5035119;28;20313;-76
2023/09/14 09:23:58;;;;;;;4.50;3.95;;;26.10;99.90;;;;;;5034953;28;20226;-77
2023/09/14 09:26:25;;;;;;;4.68;4.13;;;25.90;99.90;;;;;;5034210;28;20396;-76
2023/09/14 09:28:52;;;;;;;4.82;4.35;;;25.40;99.90;;;;;;5034966;28;20253;-76
2023/09/14 09:31:19;;;;;;;4.13;3.83;;;24.90;99.90;;;;;;5035554;28;20230;-79
2023/09/14 09:33:48;;;;;;;4.45;4.05;;;24.40;99.90;;;;;;5052656;28;20222;-80
2023/09/14 09:36:17;;;;;;;3.83;3.53;;;24.10;99.90;;;;;;5040553;28;20278;-77
2023/09/14 09:38:45;;;;;;;4.82;4.43;;;23.80;99.90;;;;;;5034119;28;20227;-77
2023/09/14 09:41:16;;;;;;;4.82;4.43;;;24.10;99.90;;;;;;5038024;28;20293;-78
2023/09/14 09:43:44;;;;;;;4.03;3.72;;;24.20;99.90;;;;;;5043268;28;20211;-76
2023/09/14 09:46:17;;;;;;;4.88;4.47;;;24.40;99.90;;;;;;5038836;28;20253;-76
2023/09/14 09:48:44;;;;;;;4.30;3.90;;;24.70;99.90;;;;;;5039412;28;20190;-77
2023/09/14 09:51:11;;;;;;;4.95;4.45;;;24.80;99.90;;;;;;5035880;28;20257;-78
2023/09/14 09:53:38;;;;;;;5.35;4.93;;;24.80;99.90;;;;;;5039883;28;20300;-77
2023/09/14 09:56:06;;;;;;;5.03;4.68;;;24.70;99.90;;;;;;5045843;28;20667;-76
2023/09/14 09:58:38;;;;;;;4.43;4.13;;;24.60;99.90;;;;;;5042930;28;20749;-78
2023/09/14 10:01:06;;;;;;;5.20;4.80;;;24.40;99.90;;;;;;5037315;28;21119;-82
2023/09/14 10:03:34;;;;;;;4.72;4.28;;;24.40;99.90;;;;;;5042611;28;20219;-79
2023/09/14 10:06:02;;;;;;;5.90;4.45;;;24.80;99.90;;;;;;5038941;28;20625;-79
2023/09/14 10:08:29;;;;;;;4.30;4.00;;;24.50;99.90;;;;;;5040058;28;20272;-80
2023/09/14 10:10:56;;;;;;;4.78;4.40;;;24.30;99.90;;;;;;5039265;28;20195;-78
2023/09/14 10:13:24;;;;;;;4.38;3.90;;;24.10;99.90;;;;;;5037212;28;20223;-77
2023/09/14 10:15:54;;;;;;;4.35;4.00;;;23.90;99.90;;;;;;5037633;28;20273;-78
2023/09/14 10:18:22;;;;;;;4.32;4.03;;;23.80;99.90;;;;;;5037566;28;20261;-79
2023/09/14 10:20:51;;;;;;;4.78;4.30;;;24.30;99.90;;;;;;5040022;28;20290;-79
2023/09/14 10:23:19;;;;;;;4.60;4.20;;;24.50;99.90;;;;;;5035755;28;20225;-77
2023/09/14 10:25:49;;;;;;;4.65;4.07;;;24.30;99.90;;;;;;5035316;28;22298;-78
2023/09/14 10:28:17;;;;;;;4.07;3.78;;;24.00;99.90;;;;;;5038435;28;20566;-79
2023/09/14 10:30:45;;;;;;;3.92;3.63;;;23.80;99.90;;;;;;5037892;28;20201;-77
2023/09/14 10:33:14;;;;;;;3.92;3.63;;;23.80;99.90;;;;;;5036657;28;20222;-76
2023/09/14 10:35:42;;;;;;;4.22;3.85;;;23.80;99.90;;;;;;5035506;28;20273;-80
2023/09/14 10:38:10;;;;;;;4.30;3.90;;;23.90;99.90;;;;;;5037303;28;20321;-79
2023/09/14 10:40:38;;;;;;;4.78;3.80;;;24.00;99.90;;;;;;5037528;28;20199;-76
2023/09/14 10:43:07;;;;;;;5.22;4.70;;;24.20;99.90;;;;;;5037637;28;20215;-80
2023/09/14 10:45:38;;;;;;;4.28;3.92;;;24.40;99.90;;;;;;5038845;28;20299;-81
2023/09/14 10:48:07;;;;;;;3.35;3.13;;;24.50;99.90;;;;;;5035313;28;20293;-79
2023/09/14 10:50:35;;;;;;;3.78;3.47;;;24.50;99.90;;;;;;5039916;28;20227;-77
2023/09/14 10:53:03;;;;;;;3.90;3.60;;;24.50;99.90;;;;;;5041167;28;20708;-76
2023/09/14 10:55:31;;;;;;;3.75;3.45;;;24.40;99.90;;;;;;5040333;28;20203;-80
2023/09/14 10:57:58;;;;;;;4.30;3.90;;;24.40;99.90;;;;;;5037730;28;20683;-77
2023/09/14 11:00:33;;;;;;;5.07;4.00;;;24.40;99.90;;;;;;5033742;28;20221;-80
2023/09/14 11:03:00;;;;;;;4.20;3.90;;;24.40;99.90;;;;;;5032504;28;20723;-78
2023/09/14 11:05:39;;;;;;;3.80;3.50;;;24.30;99.90;;;;;;5035959;28;20659;-79
2023/09/14 11:08:08;;;;;;;4.15;3.65;;;24.40;99.90;;;;;;5037557;28;20203;-79
2023/09/14 11:10:37;;;;;;;4.00;3.70;;;24.40;99.90;;;;;;5031629;28;20705;-82
2023/09/14 11:13:30;;;;;;;4.45;3.67;;;25.00;99.90;;;;;;5030421;28;20413;-80
2023/09/14 11:16:05;;;;;;;4.18;3.60;;;25.80;99.90;;;;;;5033675;28;20260;-79
2023/09/14 11:18:37;;;;;;;3.75;3.42;;;26.20;99.90;;;;;;5036434;28;20207;-79
2023/09/14 11:21:05;;;;;;;4.15;3.38;;;26.60;99.90;;;;;;5029266;28;20508;-82
2023/09/14 11:23:36;;;;;;;3.60;3.33;;;26.90;99.90;;;;;;5030068;28;20229;-76
2023/09/14 11:26:04;;;;;;;3.10;2.80;;;27.00;99.90;;;;;;5035693;28;20203;-73
2023/09/14 11:28:33;;;;;;;3.08;2.85;;;26.80;99.90;;;;;;5035135;28;20195;-76
2023/09/14 11:31:02;;;;;;;3.10;2.80;;;26.50;99.90;;;;;;5039065;28;20290;-79
2023/09/14 11:33:32;;;;;;;2.92;2.72;;;26.00;99.90;;;;;;5059049;28;20218;-83
2023/09/14 11:36:01;;;;;;;2.78;2.60;;;25.70;99.90;;;;;;5042745;28;20309;-76
2023/09/14 11:38:28;;;;;;;3.10;2.80;;;25.70;99.90;;;;;;5035641;28;20253;-74
2023/09/14 11:40:56;;;;;;;2.90;2.70;;;26.00;99.90;;;;;;5038864;28;21175;-77
2023/09/14 11:43:28;;;;;;;2.70;2.45;;;26.30;99.90;;;;;;5036652;28;20479;-78
2023/09/14 11:45:58;;;;;;;2.88;2.67;;;26.70;99.90;;;;;;5035680;28;20207;-75
2023/09/14 11:48:29;;;;;;;4.30;2.90;;;27.00;99.90;;;;;;5034490;28;20277;-75
2023/09/14 11:51:02;;;;;;;3.13;2.80;;;27.30;99.90;;;;;;5035054;28;20849;-76
2023/09/14 11:53:32;;;;;;;2.75;2.55;;;27.00;99.90;;;;;;5050331;22;20228;-78
2023/09/14 11:56:01;;;;;;;2.25;2.08;;;26.70;99.90;;;;;;5013468;28;20211;-78
2023/09/14 11:58:28;;;;;;;1.80;1.70;;;26.70;99.90;;;;;;5003262;28;20205;-78
2023/09/14 12:00:57;;;;;;;1.73;1.63;;;26.60;99.90;;;;;;5006780;28;20204;-78
2023/09/14 12:03:24;;;;;;;2.40;1.40;;;26.60;99.90;;;;;;4999292;28;20313;-78
2023/09/14 12:05:55;;;;;;;1.50;1.40;;;26.60;99.90;;;;;;5005917;28;20204;-79
2023/09/14 12:08:22;;;;;;;1.65;1.52;;;26.80;99.90;;;;;;5011322;28;20262;-78
2023/09/14 12:10:55;;;;;;;1.88;1.77;;;26.70;99.90;;;;;;5008609;28;20204;-77
2023/09/14 12:13:24;;;;;;;2.13;1.80;;;26.50;99.90;;;;;;4994467;28;20244;-77
2023/09/14 12:15:59;;;;;;;1.88;1.77;;;26.60;99.90;;;;;;4998840;28;20208;-77
2023/09/14 12:18:39;;;;;;;3.28;2.30;;;26.90;99.90;;;;;;4997109;28;20211;-78
2023/09/14 12:21:08;;;;;;;1.90;1.80;;;26.90;99.90;;;;;;4995338;28;20480;-78
2023/09/14 12:23:38;;;;;;;2.22;2.13;;;26.70;99.90;;;;;;4994370;28;20215;-79
2023/09/14 12:26:05;;;;;;;2.63;2.42;;;26.50;99.90;;;;;;4993338;28;20212;-77
2023/09/14 12:28:34;;;;;;;2.47;2.33;;;26.40;99.90;;;;;;4997365;28;20255;-76
2023/09/14 12:31:01;;;;;;;2.60;2.40;;;26.50;99.90;;;;;;4992298;28;20205;-78
2023/09/14 12:33:28;;;;;;;2.33;2.22;;;26.80;99.90;;;;;;4995915;28;20256;-79
2023/09/14 12:35:56;;;;;;;2.40;2.20;;;26.70;99.90;;;;;;4990875;28;21477;-79
2023/09/14 12:38:24;;;;;;;3.22;2.75;;;26.60;99.90;;;;;;4994354;28;20336;-80
2023/09/14 12:40:52;;;;;;;3.78;2.78;;;26.80;99.90;;;;;;4993804;28;20593;-78
2023/09/14 12:43:19;;;;;;;2.90;2.70;;;27.10;99.90;;;;;;4996045;28;20758;-78
2023/09/14 12:45:47;;;;;;;2.97;2.78;;;27.10;99.90;;;;;;4990234;28;20204;-78
2023/09/14 12:48:17;;;;;;;2.97;2.70;;;27.20;99.90;;;;;;4996222;28;20642;-77
2023/09/14 12:50:44;;;;;;;3.22;2.95;;;27.30;99.90;;;;;;4993189;28;20595;-78
2023/09/14 12:53:13;;;;;;;3.33;3.00;;;27.30;99.90;;;;;;4997960;28;20219;-77